sensor_id;sensor_type;location;lat;lon;timestamp;temperature;humidity
77039;DHT22;65970;50.476;4.840;2022-12-31T03:35:53;14.30;99.90
77039;DHT22;65970;50.476;4.840;2022-12-31T03:51:20;14.50;99.90
77039;DHT22;65970;50.476;4.840;2022-12-31T04:12:23;14.70;99.90
77039;DHT22;65970;50.476;4.840;2022-12-31T04:17:27;14.70;99.90
77039;DHT22;65970;50.476;4.840;2022-12-31T04:22:29;14.70;99.90
77039;DHT22;65970;50.476;4.840;2022-12-31T04:38:33;14.70;99.90
77039;DHT22;65970;50.476;4.840;2022-12-31T04:43:37;14.70;99.90
77039;DHT22;65970;50.476;4.840;2022-12-31T04:53:46;14.80;99.90
77039;DHT22;65970;50.476;4.840;2022-12-31T04:58:47;14.80;99.90
77039;DHT22;65970;50.476;4.840;2022-12-31T05:03:47;14.80;99.90
77039;DHT22;65970;50.476;4.840;2022-12-31T05:08:49;14.80;99.90
77039;DHT22;65970;50.476;4.840;2022-12-31T05:13:49;14.90;99.90
77039;DHT22;65970;50.476;4.840;2022-12-31T05:18:50;14.90;99.90
77039;DHT22;65970;50.476;4.840;2022-12-31T05:23:50;14.90;99.90
77039;DHT22;65970;50.476;4.840;2022-12-31T05:28:51;15.00;99.90
77039;DHT22;65970;50.476;4.840;2022-12-31T05:33:52;15.00;99.90
77039;DHT22;65970;50.476;4.840;2022-12-31T05:38:52;15.00;99.90
77039;DHT22;65970;50.476;4.840;2022-12-31T05:43:53;15.00;99.90
77039;DHT22;65970;50.476;4.840;2022-12-31T05:48:53;15.00;99.90
77039;DHT22;65970;50.476;4.840;2022-12-31T05:53:54;15.00;99.90
77039;DHT22;65970;50.476;4.840;2022-12-31T05:58:55;15.00;99.90
77039;DHT22;65970;50.476;4.840;2022-12-31T06:03:55;15.00;99.90
77039;DHT22;65970;50.476;4.840;2022-12-31T06:08:56;15.10;99.90
77039;DHT22;65970;50.476;4.840;2022-12-31T06:13:56;15.10;99.90
77039;DHT22;65970;50.476;4.840;2022-12-31T06:18:57;15.10;99.90
77039;DHT22;65970;50.476;4.840;2022-12-31T06:23:57;15.10;99.90
77039;DHT22;65970;50.476;4.840;2022-12-31T06:28:58;15.10;99.90
77039;DHT22;65970;50.476;4.840;2022-12-31T06:33:58;15.10;99.90
77039;DHT22;65970;50.476;4.840;2022-12-31T06:39:00;15.10;99.90
77039;DHT22;65970;50.476;4.840;2022-12-31T06:44:01;15.10;99.90
77039;DHT22;65970;50.476;4.840;2022-12-31T06:49:01;15.20;99.90
77039;DHT22;65970;50.476;4.840;2022-12-31T06:54:02;15.10;99.90
77039;DHT22;65970;50.476;4.840;2022-12-31T06:59:03;15.20;99.90
77039;DHT22;65970;50.476;4.840;2022-12-31T07:04:29;15.10;99.90
77039;DHT22;65970;50.476;4.840;2022-12-31T07:09:50;15.10;99.90
77039;DHT22;65970;50.476;4.840;2022-12-31T07:15:05;15.10;99.90
77039;DHT22;65970;50.476;4.840;2022-12-31T07:20:13;15.20;99.90
77039;DHT22;65970;50.476;4.840;2022-12-31T07:25:16;15.20;99.90
77039;DHT22;65970;50.476;4.840;2022-12-31T07:30:43;15.20;99.90
77039;DHT22;65970;50.476;4.840;2022-12-31T07:40:53;15.10;99.90
77039;DHT22;65970;50.476;4.840;2022-12-31T07:51:04;15.20;99.90
77039;DHT22;65970;50.476;4.840;2022-12-31T07:56:07;15.20;99.90
77039;DHT22;65970;50.476;4.840;2022-12-31T08:01:11;15.10;99.90
77039;DHT22;65970;50.476;4.840;2022-12-31T08:06:33;15.10;99.90
77039;DHT22;65970;50.476;4.840;2022-12-31T08:11:45;15.00;99.90
77039;DHT22;65970;50.476;4.840;2022-12-31T08:16:47;15.10;99.90
77039;DHT22;65970;50.476;4.840;2022-12-31T08:21:58;15.10;99.90
77039;DHT22;65970;50.476;4.840;2022-12-31T08:37:58;15.20;99.90
77039;DHT22;65970;50.476;4.840;2022-12-31T08:48:41;15.30;99.90
77039;DHT22;65970;50.476;4.840;2022-12-31T08:53:42;15.40;99.90
77039;DHT22;65970;50.476;4.840;2022-12-31T09:04:29;15.40;99.90
77039;DHT22;65970;50.476;4.840;2022-12-31T09:19:57;15.50;99.90
77039;DHT22;65970;50.476;4.840;2022-12-31T09:24:58;15.50;99.90
77039;DHT22;65970;50.476;4.840;2022-12-31T09:35:23;15.50;99.90
77039;DHT22;65970;50.476;4.840;2022-12-31T09:56:44;15.70;99.90
77039;DHT22;65970;50.476;4.840;2022-12-31T10:17:51;15.80;99.90
77039;DHT22;65970;50.476;4.840;2022-12-31T10:39:09;15.70;99.90
77039;DHT22;65970;50.476;4.840;2022-12-31T10:55:19;15.60;99.90
77039;DHT22;65970;50.476;4.840;2022-12-31T11:00:23;15.60;99.90
77039;DHT22;65970;50.476;4.840;2022-12-31T11:21:31;15.50;99.90
77039;DHT22;65970;50.476;4.840;2022-12-31T11:59:21;15.50;99.90
77039;DHT22;65970;50.476;4.840;2022-12-31T12:04:22;15.50;99.90
77039;DHT22;65970;50.476;4.840;2022-12-31T12:09:30;15.50;99.90
77039;DHT22;65970;50.476;4.840;2022-12-31T12:14:36;15.40;99.90
77039;DHT22;65970;50.476;4.840;2022-12-31T12:19:44;15.20;99.90
77039;DHT22;65970;50.476;4.840;2022-12-31T12:24:56;15.00;99.90
77039;DHT22;65970;50.476;4.840;2022-12-31T12:29:57;15.00;99.90
77039;DHT22;65970;50.476;4.840;2022-12-31T12:35:15;15.00;99.90
77039;DHT22;65970;50.476;4.840;2022-12-31T12:40:21;15.00;99.90
77039;DHT22;65970;50.476;4.840;2022-12-31T12:45:24;14.90;99.90
77039;DHT22;65970;50.476;4.840;2022-12-31T12:50:35;15.00;99.90
77039;DHT22;65970;50.476;4.840;2022-12-31T12:56:11;15.00;99.90
77039;DHT22;65970;50.476;4.840;2022-12-31T13:06:57;15.00;99.90
77039;DHT22;65970;50.476;4.840;2022-12-31T13:12:33;14.90;99.90
77039;DHT22;65970;50.476;4.840;2022-12-31T13:23:15;14.90;99.90
77039;DHT22;65970;50.476;4.840;2022-12-31T13:28:18;14.90;99.90
77039;DHT22;65970;50.476;4.840;2022-12-31T13:33:24;14.90;99.90
77039;DHT22;65970;50.476;4.840;2022-12-31T13:49:23;14.80;99.90
77039;DHT22;65970;50.476;4.840;2022-12-31T13:54:42;14.80;99.90
77039;DHT22;65970;50.476;4.840;2022-12-31T13:59:49;14.80;99.90
77039;DHT22;65970;50.476;4.840;2022-12-31T14:26:08;15.10;99.90
77039;DHT22;65970;50.476;4.840;2022-12-31T15:29:16;14.80;99.90
77039;DHT22;65970;50.476;4.840;2022-12-31T15:34:32;14.80;99.90
77039;DHT22;65970;50.476;4.840;2022-12-31T15:39:41;14.80;99.90
77039;DHT22;65970;50.476;4.840;2022-12-31T15:44:54;14.70;99.90
77039;DHT22;65970;50.476;4.840;2022-12-31T15:49:57;14.70;99.90
77039;DHT22;65970;50.476;4.840;2022-12-31T15:54:59;14.70;99.90
77039;DHT22;65970;50.476;4.840;2022-12-31T16:00:14;14.60;99.90
77039;DHT22;65970;50.476;4.840;2022-12-31T16:05:23;14.60;99.90
77039;DHT22;65970;50.476;4.840;2022-12-31T16:10:28;14.60;99.90
77039;DHT22;65970;50.476;4.840;2022-12-31T16:15:30;14.50;99.90
77039;DHT22;65970;50.476;4.840;2022-12-31T16:20:32;14.60;99.90
77039;DHT22;65970;50.476;4.840;2022-12-31T16:25:33;14.50;99.90
77039;DHT22;65970;50.476;4.840;2022-12-31T16:30:34;14.50;99.90
77039;DHT22;65970;50.476;4.840;2022-12-31T16:35:36;14.50;99.90
77039;DHT22;65970;50.476;4.840;2022-12-31T16:40:36;14.50;99.90
77039;DHT22;65970;50.476;4.840;2022-12-31T16:45:37;14.40;99.90
77039;DHT22;65970;50.476;4.840;2022-12-31T16:50:38;14.40;99.90
77039;DHT22;65970;50.476;4.840;2022-12-31T16:55:42;14.40;99.90
77039;DHT22;65970;50.476;4.840;2022-12-31T17:00:50;14.30;99.90
77039;DHT22;65970;50.476;4.840;2022-12-31T17:11:15;14.30;99.90
77039;DHT22;65970;50.476;4.840;2022-12-31T17:16:16;14.30;99.90
77039;DHT22;65970;50.476;4.840;2022-12-31T17:21:18;14.30;99.90
77039;DHT22;65970;50.476;4.840;2022-12-31T17:26:27;14.30;99.90
77039;DHT22;65970;50.476;4.840;2022-12-31T17:36:35;14.30;99.90
77039;DHT22;65970;50.476;4.840;2022-12-31T17:41:36;14.40;99.90
77039;DHT22;65970;50.476;4.840;2022-12-31T17:46:37;14.30;99.90
77039;DHT22;65970;50.476;4.840;2022-12-31T17:51:39;14.40;99.90
77039;DHT22;65970;50.476;4.840;2022-12-31T17:56:40;14.40;99.90
77039;DHT22;65970;50.476;4.840;2022-12-31T18:01:41;14.30;99.90
77039;DHT22;65970;50.476;4.840;2022-12-31T18:06:42;14.30;99.90
77039;DHT22;65970;50.476;4.840;2022-12-31T18:11:43;14.30;99.90
77039;DHT22;65970;50.476;4.840;2022-12-31T18:16:44;14.30;99.90
77039;DHT22;65970;50.476;4.840;2022-12-31T18:21:45;14.30;99.90
77039;DHT22;65970;50.476;4.840;2022-12-31T18:26:46;14.30;99.90
77039;DHT22;65970;50.476;4.840;2022-12-31T18:31:48;14.30;99.90
77039;DHT22;65970;50.476;4.840;2022-12-31T18:36:50;14.30;99.90
77039;DHT22;65970;50.476;4.840;2022-12-31T18:41:52;14.20;99.90
77039;DHT22;65970;50.476;4.840;2022-12-31T18:46:53;14.30;99.90
77039;DHT22;65970;50.476;4.840;2022-12-31T18:51:53;14.30;99.60
77039;DHT22;65970;50.476;4.840;2022-12-31T18:56:54;14.30;99.90
77039;DHT22;65970;50.476;4.840;2022-12-31T19:01:55;14.30;99.90
77039;DHT22;65970;50.476;4.840;2022-12-31T19:06:56;14.30;98.00
77039;DHT22;65970;50.476;4.840;2022-12-31T19:11:56;14.30;98.70
77039;DHT22;65970;50.476;4.840;2022-12-31T19:16:57;14.30;97.00
77039;DHT22;65970;50.476;4.840;2022-12-31T19:21:58;14.30;95.70
77039;DHT22;65970;50.476;4.840;2022-12-31T19:26:59;14.30;92.80
77039;DHT22;65970;50.476;4.840;2022-12-31T19:32:00;14.40;93.90
77039;DHT22;65970;50.476;4.840;2022-12-31T19:37:01;14.30;93.00
77039;DHT22;65970;50.476;4.840;2022-12-31T19:42:01;14.30;94.80
77039;DHT22;65970;50.476;4.840;2022-12-31T19:47:02;14.20;95.60
77039;DHT22;65970;50.476;4.840;2022-12-31T19:52:02;14.20;94.00
77039;DHT22;65970;50.476;4.840;2022-12-31T19:57:03;14.20;93.20
77039;DHT22;65970;50.476;4.840;2022-12-31T20:02:04;14.30;91.70
77039;DHT22;65970;50.476;4.840;2022-12-31T20:17:28;14.30;86.30
77039;DHT22;65970;50.476;4.840;2022-12-31T20:22:30;14.40;86.20
77039;DHT22;65970;50.476;4.840;2022-12-31T20:27:31;14.40;85.50
77039;DHT22;65970;50.476;4.840;2022-12-31T20:32:32;14.40;87.60
77039;DHT22;65970;50.476;4.840;2022-12-31T20:37:33;14.40;84.80
77039;DHT22;65970;50.476;4.840;2022-12-31T20:42:39;14.50;84.50
77039;DHT22;65970;50.476;4.840;2022-12-31T20:47:57;14.50;83.40
77039;DHT22;65970;50.476;4.840;2022-12-31T20:53:23;14.40;84.80
77039;DHT22;65970;50.476;4.840;2022-12-31T20:58:30;14.40;84.10
77039;DHT22;65970;50.476;4.840;2022-12-31T21:08:50;14.40;82.80
77039;DHT22;65970;50.476;4.840;2022-12-31T21:13:56;14.50;83.50
77039;DHT22;65970;50.476;4.840;2022-12-31T21:19:01;14.40;83.80
77039;DHT22;65970;50.476;4.840;2022-12-31T21:24:01;14.40;82.70
77039;DHT22;65970;50.476;4.840;2022-12-31T21:29:06;14.40;84.10
77039;DHT22;65970;50.476;4.840;2022-12-31T21:34:08;14.40;85.00
77039;DHT22;65970;50.476;4.840;2022-12-31T21:39:29;14.40;83.50
77039;DHT22;65970;50.476;4.840;2022-12-31T21:54:58;14.40;83.50
77039;DHT22;65970;50.476;4.840;2022-12-31T22:00:21;14.40;82.70
77039;DHT22;65970;50.476;4.840;2022-12-31T22:05:26;14.40;82.90
77039;DHT22;65970;50.476;4.840;2022-12-31T22:15:47;14.30;81.70
77039;DHT22;65970;50.476;4.840;2022-12-31T22:21:25;14.30;83.10
77039;DHT22;65970;50.476;4.840;2022-12-31T22:26:28;14.30;82.10
77039;DHT22;65970;50.476;4.840;2022-12-31T22:31:31;14.30;80.50
77039;DHT22;65970;50.476;4.840;2022-12-31T22:36:52;14.30;80.00
77039;DHT22;65970;50.476;4.840;2022-12-31T22:41:52;14.20;81.60
77039;DHT22;65970;50.476;4.840;2022-12-31T22:46:53;14.10;81.00
77039;DHT22;65970;50.476;4.840;2022-12-31T22:51:54;14.10;80.30
77039;DHT22;65970;50.476;4.840;2022-12-31T22:56:54;14.00;80.40
77039;DHT22;65970;50.476;4.840;2022-12-31T23:01:55;14.00;79.60
77039;DHT22;65970;50.476;4.840;2022-12-31T23:06:55;14.00;79.80
77039;DHT22;65970;50.476;4.840;2022-12-31T23:11:56;14.00;77.80
77039;DHT22;65970;50.476;4.840;2022-12-31T23:16:57;14.10;75.70
77039;DHT22;65970;50.476;4.840;2022-12-31T23:21:57;14.10;77.50
77039;DHT22;65970;50.476;4.840;2022-12-31T23:26:58;14.00;77.10
77039;DHT22;65970;50.476;4.840;2022-12-31T23:31:59;14.00;77.30
77039;DHT22;65970;50.476;4.840;2022-12-31T23:37:00;13.90;74.90
77039;DHT22;65970;50.476;4.840;2022-12-31T23:42:00;13.90;76.40
77039;DHT22;65970;50.476;4.840;2022-12-31T23:47:01;13.90;74.90
77039;DHT22;65970;50.476;4.840;2022-12-31T23:52:02;13.80;76.50
77039;DHT22;65970;50.476;4.840;2022-12-31T23:57:02;13.80;74.80
